Time,TemperatureF,DewpointF,PressureIn,WindDirection,WindDirectionDegrees,WindSpeedMPH,WindSpeedGustMPH,Humidity,HourlyPrecipIn,Conditions,Clouds,dailyrainin,SoftwareType,DateUTC
2013-11-12 00:01:00,35.7,16.0,30.45,SSW,207,0.0,3.0,45,0.00,,,0.00,weatherlink.com 1.10,2013-11-12 07:01:00,
2013-11-12 00:16:00,35.2,17.0,30.45,SSW,207,0.0,1.0,47,0.00,,,0.00,weatherlink.com 1.10,2013-11-12 07:16:00,
2013-11-12 00:31:00,35.6,17.0,30.45,SSW,207,1.0,1.0,46,0.00,,,0.00,weatherlink.com 1.10,2013-11-12 07:31:00,
2013-11-12 00:46:00,33.4,16.0,30.46,SW,233,0.0,1.0,49,0.00,,,0.00,weatherlink.com 1.10,2013-11-12 07:46:00,
2013-11-12 01:01:00,33.0,16.0,30.46,West,265,0.0,1.0,49,0.00,,,0.00,weatherlink.com 1.10,2013-11-12 08:01:00,
2013-11-12 01:16:00,36.3,15.0,30.46,NE,37,2.0,5.0,42,0.00,,,0.00,weatherlink.com 1.10,2013-11-12 08:16:00,
2013-11-12 01:31:00,45.8,16.0,30.46,North,360,1.0,8.0,30,0.00,,,0.00,weatherlink.com 1.10,2013-11-12 08:31:00,
2013-11-12 01:46:00,44.8,16.0,30.46,SSW,203,1.0,3.0,32,0.00,,,0.00,weatherlink.com 1.10,2013-11-12 08:46:00,
2013-11-12 02:01:00,38.4,16.0,30.47,SW,217,0.0,1.0,40,0.00,,,0.00,weatherlink.com 1.10,2013-11-12 09:01:00,
2013-11-12 02:16:00,38.0,16.0,30.47,WNW,296,0.0,1.0,41,0.00,,,0.00,weatherlink.com 1.10,2013-11-12 09:16:00,
2013-11-12 02:31:00,37.2,16.0,30.47,NNW,330,0.0,2.0,42,0.00,,,0.00,weatherlink.com 1.10,2013-11-12 09:31:00,
2013-11-12 02:46:00,35.8,16.0,30.48,West,268,1.0,2.0,44,0.00,,,0.00,weatherlink.com 1.10,2013-11-12 09:46:00,
2013-11-12 03:01:00,35.6,16.0,30.48,West,268,0.0,1.0,45,0.00,,,0.00,weatherlink.com 1.10,2013-11-12 10:01:00,
2013-11-12 03:16:00,32.9,15.0,30.48,West,268,0.0,1.0,49,0.00,,,0.00,weatherlink.com 1.10,2013-11-12 10:16:00,
2013-11-12 03:31:00,31.7,16.0,30.49,SE,131,0.0,1.0,52,0.00,,,0.00,weatherlink.com 1.10,2013-11-12 10:31:00,
2013-11-12 03:46:00,30.7,16.0,30.49,West,264,0.0,1.0,54,0.00,,,0.00,weatherlink.com 1.10,2013-11-12 10:46:00,
2013-11-12 04:01:00,30.7,16.0,30.48,WNW,290,0.0,1.0,55,0.00,,,0.00,weatherlink.com 1.10,2013-11-12 11:01:00,
2013-11-12 04:16:00,30.4,16.0,30.48,SW,230,0.0,1.0,55,0.00,,,0.00,weatherlink.com 1.10,2013-11-12 11:16:00,
2013-11-12 04:31:00,30.1,16.0,30.49,WNW,289,0.0,1.0,57,0.00,,,0.00,weatherlink.com 1.10,2013-11-12 11:31:00,
2013-11-12 04:46:00,30.8,17.0,30.49,WNW,299,0.0,1.0,56,0.00,,,0.00,weatherlink.com 1.10,2013-11-12 11:46:00,
2013-11-12 05:01:00,30.7,17.0,30.50,NW,311,1.0,1.0,57,0.00,,,0.00,weatherlink.com 1.10,2013-11-12 12:01:00,
2013-11-12 05:16:00,32.1,17.0,30.49,NNW,333,0.0,2.0,54,0.00,,,0.00,weatherlink.com 1.10,2013-11-12 12:16:00,
2013-11-12 05:31:00,32.4,17.0,30.49,NW,318,0.0,2.0,53,0.00,,,0.00,weatherlink.com 1.10,2013-11-12 12:31:00,
2013-11-12 05:46:00,31.8,17.0,30.49,NNW,329,0.0,2.0,54,0.00,,,0.00,weatherlink.com 1.10,2013-11-12 12:46:00,
2013-11-12 06:01:00,30.6,16.0,30.49,NW,324,0.0,1.0,56,0.00,,,0.00,weatherlink.com 1.10,2013-11-12 13:01:00,
2013-11-12 06:17:00,29.8,17.0,30.49,North,8,1.0,1.0,58,0.00,,,0.00,weatherlink.com 1.10,2013-11-12 13:17:00,
2013-11-12 06:32:00,29.2,16.0,30.50,NW,322,0.0,1.0,59,0.00,,,0.00,weatherlink.com 1.10,2013-11-12 13:32:00,
2013-11-12 06:47:00,29.0,16.0,30.50,NNW,331,0.0,1.0,59,0.00,,,0.00,weatherlink.com 1.10,2013-11-12 13:47:00,
2013-11-12 07:02:00,28.3,16.0,30.50,NNW,333,0.0,1.0,61,0.00,,,0.00,weatherlink.com 1.10,2013-11-12 14:02:00,
2013-11-12 07:17:00,28.1,16.0,30.51,NW,312,0.0,1.0,62,0.00,,,0.00,weatherlink.com 1.10,2013-11-12 14:17:00,
2013-11-12 07:32:00,29.2,17.0,30.51,NW,312,0.0,0.0,61,0.00,,,0.00,weatherlink.com 1.10,2013-11-12 14:32:00,
2013-11-12 07:47:00,30.8,18.0,30.52,North,352,0.0,1.0,59,0.00,,,0.00,weatherlink.com 1.10,2013-11-12 14:47:00,
2013-11-12 08:02:00,33.2,18.0,30.52,WNW,285,0.0,1.0,55,0.00,,,0.00,weatherlink.com 1.10,2013-11-12 15:02:00,
2013-11-12 08:18:00,36.4,19.0,30.53,NNW,348,0.0,1.0,50,0.00,,,0.00,weatherlink.com 1.10,2013-11-12 15:18:00,
2013-11-12 08:32:00,40.3,20.0,30.53,NW,309,0.0,1.0,45,0.00,,,0.00,weatherlink.com 1.10,2013-11-12 15:32:00,
2013-11-12 08:47:00,47.0,20.0,30.54,NW,309,0.0,0.0,35,0.00,,,0.00,weatherlink.com 1.10,2013-11-12 15:47:00,
2013-11-12 09:02:00,51.2,21.0,30.54,SSE,164,0.0,3.0,30,0.00,,,0.00,weatherlink.com 1.10,2013-11-12 16:02:00,
2013-11-12 09:17:00,53.0,17.0,30.54,NE,48,6.0,14.0,24,0.00,,,0.00,weatherlink.com 1.10,2013-11-12 16:17:00,
2013-11-12 09:32:00,53.2,18.0,30.54,NNE,30,4.0,13.0,25,0.00,,,0.00,weatherlink.com 1.10,2013-11-12 16:32:00,
2013-11-12 09:47:00,53.0,18.0,30.55,ENE,72,4.0,16.0,25,0.00,,,0.00,weatherlink.com 1.10,2013-11-12 16:47:00,
2013-11-12 10:03:00,54.1,18.0,30.55,ENE,57,4.0,9.0,24,0.00,,,0.00,weatherlink.com 1.10,2013-11-12 17:03:00,
2013-11-12 10:17:00,54.0,18.0,30.55,NE,50,5.0,10.0,24,0.00,,,0.00,weatherlink.com 1.10,2013-11-12 17:17:00,
2013-11-12 10:32:00,54.1,18.0,30.55,East,98,9.0,12.0,24,0.00,,,0.00,weatherlink.com 1.10,2013-11-12 17:32:00,
2013-11-12 10:47:00,55.9,17.0,30.54,NE,44,4.0,10.0,22,0.00,,,0.00,weatherlink.com 1.10,2013-11-12 17:47:00,
2013-11-12 11:02:00,56.4,18.0,30.54,ENE,66,5.0,10.0,22,0.00,,,0.00,weatherlink.com 1.10,2013-11-12 18:02:00,
2013-11-12 11:17:00,57.8,18.0,30.53,ENE,62,4.0,9.0,21,0.00,,,0.00,weatherlink.com 1.10,2013-11-12 18:17:00,
2013-11-12 11:32:00,57.6,17.0,30.52,SE,134,5.0,12.0,20,0.00,,,0.00,weatherlink.com 1.10,2013-11-12 18:32:00,
2013-11-12 11:47:00,58.3,16.0,30.52,NE,50,5.0,9.0,19,0.00,,,0.00,weatherlink.com 1.10,2013-11-12 18:47:00,
2013-11-12 12:02:00,57.7,17.0,30.51,NE,54,6.0,13.0,20,0.00,,,0.00,weatherlink.com 1.10,2013-11-12 19:02:00,
2013-11-12 12:17:00,57.5,18.0,30.50,ESE,108,1.0,11.0,21,0.00,,,0.00,weatherlink.com 1.10,2013-11-12 19:17:00,
2013-11-12 12:32:00,58.3,18.0,30.50,East,89,3.0,10.0,21,0.00,,,0.00,weatherlink.com 1.10,2013-11-12 19:32:00,
2013-11-12 12:48:00,59.1,19.0,30.49,ENE,77,3.0,12.0,21,0.00,,,0.00,weatherlink.com 1.10,2013-11-12 19:48:00,
2013-11-12 13:03:00,59.3,17.0,30.48,ENE,74,11.0,12.0,19,0.00,,,0.00,weatherlink.com 1.10,2013-11-12 20:03:00,
2013-11-12 13:18:00,60.3,18.0,30.48,ENE,71,1.0,10.0,19,0.00,,,0.00,weatherlink.com 1.10,2013-11-12 20:18:00,
2013-11-12 13:33:00,60.6,18.0,30.47,NE,56,4.0,13.0,19,0.00,,,0.00,weatherlink.com 1.10,2013-11-12 20:33:00,
2013-11-12 13:48:00,59.7,18.0,30.46,NE,41,7.0,15.0,20,0.00,,,0.00,weatherlink.com 1.10,2013-11-12 20:48:00,
2013-11-12 14:03:00,60.5,18.0,30.45,ENE,58,7.0,12.0,19,0.00,,,0.00,weatherlink.com 1.10,2013-11-12 21:03:00,
2013-11-12 14:18:00,58.6,16.0,30.46,NE,47,6.0,14.0,19,0.00,,,0.00,weatherlink.com 1.10,2013-11-12 21:18:00,
2013-11-12 14:33:00,58.9,19.0,30.46,ESE,108,6.0,14.0,21,0.00,,,0.00,weatherlink.com 1.10,2013-11-12 21:33:00,
2013-11-12 14:48:00,57.7,18.0,30.46,NE,53,5.0,13.0,21,0.00,,,0.00,weatherlink.com 1.10,2013-11-12 21:48:00,
2013-11-12 15:03:00,57.2,17.0,30.46,ENE,57,4.0,9.0,21,0.00,,,0.00,weatherlink.com 1.10,2013-11-12 22:03:00,
2013-11-12 15:18:00,57.0,17.0,30.46,ESE,103,1.0,6.0,21,0.00,,,0.00,weatherlink.com 1.10,2013-11-12 22:18:00,
2013-11-12 15:33:00,56.1,16.0,30.46,ENE,77,3.0,10.0,21,0.00,,,0.00,weatherlink.com 1.10,2013-11-12 22:33:00,
2013-11-12 15:48:00,55.9,16.0,30.46,ENE,66,2.0,8.0,21,0.00,,,0.00,weatherlink.com 1.10,2013-11-12 22:48:00,
2013-11-12 16:03:00,56.1,16.0,30.45,ESE,105,2.0,6.0,21,0.00,,,0.00,weatherlink.com 1.10,2013-11-12 23:03:00,
2013-11-12 16:19:00,56.3,17.0,30.45,NE,48,3.0,8.0,21,0.00,,,0.00,weatherlink.com 1.10,2013-11-12 23:19:00,
2013-11-12 16:33:00,55.9,16.0,30.45,East,79,2.0,6.0,21,0.00,,,0.00,weatherlink.com 1.10,2013-11-12 23:33:00,
2013-11-12 16:48:00,55.1,19.0,30.46,East,91,0.0,2.0,24,0.00,,,0.00,weatherlink.com 1.10,2013-11-12 23:48:00,
2013-11-12 17:03:00,54.2,17.0,30.46,ENE,57,1.0,5.0,23,0.00,,,0.00,weatherlink.com 1.10,2013-11-13 00:03:00,
2013-11-12 17:18:00,53.2,17.0,30.45,North,10,1.0,3.0,24,0.00,,,0.00,weatherlink.com 1.10,2013-11-13 00:18:00,
2013-11-12 17:33:00,52.1,17.0,30.45,North,8,1.0,1.0,25,0.00,,,0.00,weatherlink.com 1.10,2013-11-13 00:33:00,
2013-11-12 17:48:00,50.3,17.0,30.45,NW,311,0.0,1.0,27,0.00,,,0.00,weatherlink.com 1.10,2013-11-13 00:48:00,
2013-11-12 18:03:00,48.9,18.0,30.45,NW,311,0.0,1.0,29,0.00,,,0.00,weatherlink.com 1.10,2013-11-13 01:03:00,
2013-11-12 18:18:00,47.4,17.0,30.46,NNW,333,0.0,1.0,30,0.00,,,0.00,weatherlink.com 1.10,2013-11-13 01:18:00,
2013-11-12 18:33:00,46.9,18.0,30.46,West,280,0.0,1.0,31,0.00,,,0.00,weatherlink.com 1.10,2013-11-13 01:33:00,
2013-11-12 18:48:00,46.0,17.0,30.47,West,280,0.0,1.0,32,0.00,,,0.00,weatherlink.com 1.10,2013-11-13 01:48:00,
2013-11-12 19:03:00,44.7,17.0,30.47,West,280,0.0,1.0,33,0.00,,,0.00,weatherlink.com 1.10,2013-11-13 02:03:00,
2013-11-12 19:18:00,43.6,17.0,30.47,North,352,0.0,1.0,34,0.00,,,0.00,weatherlink.com 1.10,2013-11-13 02:18:00,
2013-11-12 19:33:00,43.1,16.0,30.47,NW,315,0.0,1.0,34,0.00,,,0.00,weatherlink.com 1.10,2013-11-13 02:33:00,
2013-11-12 19:48:00,42.4,17.0,30.47,NW,315,0.0,0.0,36,0.00,,,0.00,weatherlink.com 1.10,2013-11-13 02:48:00,
2013-11-12 20:03:00,41.7,17.0,30.47,NW,315,0.0,0.0,37,0.00,,,0.00,weatherlink.com 1.10,2013-11-13 03:03:00,
2013-11-12 20:18:00,41.3,17.0,30.46,NNW,345,0.0,1.0,38,0.00,,,0.00,weatherlink.com 1.10,2013-11-13 03:18:00,
2013-11-12 20:33:00,40.9,17.0,30.46,WSW,258,1.0,1.0,38,0.00,,,0.00,weatherlink.com 1.10,2013-11-13 03:33:00,
2013-11-12 20:48:00,40.7,18.0,30.47,NNW,347,0.0,1.0,40,0.00,,,0.00,weatherlink.com 1.10,2013-11-13 03:48:00,
2013-11-12 21:03:00,40.1,17.0,30.47,NNW,346,0.0,1.0,40,0.00,,,0.00,weatherlink.com 1.10,2013-11-13 04:03:00,
2013-11-12 21:18:00,39.5,17.0,30.48,NNW,346,0.0,1.0,40,0.00,,,0.00,weatherlink.com 1.10,2013-11-13 04:18:00,
2013-11-12 21:33:00,38.9,17.0,30.48,NNW,346,0.0,1.0,41,0.00,,,0.00,weatherlink.com 1.10,2013-11-13 04:33:00,
2013-11-12 21:48:00,38.3,17.0,30.48,NNW,345,0.0,1.0,43,0.00,,,0.00,weatherlink.com 1.10,2013-11-13 04:48:00,
2013-11-12 22:03:00,37.7,17.0,30.48,NNW,345,0.0,1.0,43,0.00,,,0.00,weatherlink.com 1.10,2013-11-13 05:03:00,
2013-11-12 22:18:00,37.2,18.0,30.48,WSW,240,0.0,1.0,45,0.00,,,0.00,weatherlink.com 1.10,2013-11-13 05:18:00,
2013-11-12 22:33:00,36.8,18.0,30.48,ENE,69,0.0,1.0,47,0.00,,,0.00,weatherlink.com 1.10,2013-11-13 05:33:00,
2013-11-12 22:48:00,36.3,18.0,30.48,ENE,68,0.0,1.0,47,0.00,,,0.00,weatherlink.com 1.10,2013-11-13 05:48:00,
2013-11-12 23:03:00,36.3,18.0,30.47,West,263,0.0,1.0,47,0.00,,,0.00,weatherlink.com 1.10,2013-11-13 06:03:00,
2013-11-12 23:18:00,36.5,18.0,30.47,WSW,257,0.0,1.0,47,0.00,,,0.00,weatherlink.com 1.10,2013-11-13 06:18:00,
2013-11-12 23:33:00,36.1,18.0,30.47,North,356,0.0,1.0,48,0.00,,,0.00,weatherlink.com 1.10,2013-11-13 06:33:00,
2013-11-12 23:48:00,35.7,18.0,30.46,North,352,0.0,1.0,49,0.00,,,0.00,weatherlink.com 1.10,2013-11-13 06:48:00,